Time;durP1;ratioP1;P1;durP2;ratioP2;P2;SDS_P1;SDS_P2;PMS_P1;PMS_P2;Temp;Humidity;BMP_temperature;BMP_pressure;BME280_temperature;BME280_humidity;BME280_pressure;Samples;Min_cycle;Max_cycle;Signal;HPM_P1;HPM_P2
2023/04/17 00:00:39;;;;;;;80.90;34.35;;;7.10;99.90;;;;;;5055438;28;20084;-23
2023/04/17 00:03:04;;;;;;;89.40;36.13;;;7.10;99.90;;;;;;5073672;28;20076;-22
2023/04/17 00:05:32;;;;;;;79.90;33.08;;;7.20;99.90;;;;;;5073688;28;20375;-23
2023/04/17 00:08:01;;;;;;;89.47;35.95;;;7.20;99.90;;;;;;5073120;28;20123;-22
2023/04/17 00:10:27;;;;;;;84.93;36.50;;;7.20;99.90;;;;;;5073112;28;20494;-22
2023/04/17 00:12:52;;;;;;;92.25;37.42;;;7.20;99.90;;;;;;5073136;28;20083;-23
2023/04/17 00:15:18;;;;;;;98.18;38.30;;;7.10;99.90;;;;;;5056197;28;20044;-23
2023/04/17 00:17:44;;;;;;;92.93;37.10;;;7.10;99.90;;;;;;5055899;28;20049;-23
2023/04/17 00:20:09;;;;;;;90.00;38.45;;;7.10;99.90;;;;;;5072998;28;20462;-22
2023/04/17 00:22:36;;;;;;;95.57;39.00;;;7.10;99.90;;;;;;5056122;28;20048;-22
2023/04/17 00:25:02;;;;;;;75.75;35.90;;;7.10;99.90;;;;;;5077112;28;20109;-23
2023/04/17 00:27:28;;;;;;;83.68;36.42;;;7.10;99.90;;;;;;5076789;28;20439;-22
2023/04/17 00:29:54;;;;;;;84.07;33.90;;;7.10;99.90;;;;;;5059714;28;20151;-23
2023/04/17 00:32:19;;;;;;;78.05;33.72;;;7.10;99.90;;;;;;5076530;28;20127;-23
2023/04/17 00:34:45;;;;;;;75.35;33.72;;;7.10;99.90;;;;;;5076463;28;20052;-22
2023/04/17 00:37:11;;;;;;;77.45;34.50;;;7.10;99.90;;;;;;5076383;28;20497;-22
2023/04/17 00:39:37;;;;;;;76.22;33.80;;;7.10;99.90;;;;;;5076919;28;20051;-23
2023/04/17 00:42:03;;;;;;;78.05;33.92;;;7.10;99.90;;;;;;5076543;28;20495;-22
2023/04/17 00:44:28;;;;;;;69.95;31.60;;;7.10;99.90;;;;;;5075988;28;20076;-23
2023/04/17 00:46:55;;;;;;;82.65;31.95;;;7.10;99.90;;;;;;5041743;28;20049;-22
2023/04/17 00:49:21;;;;;;;80.68;33.03;;;7.10;99.90;;;;;;5076747;28;20037;-23
2023/04/17 00:51:49;;;;;;;78.82;31.92;;;7.00;99.90;;;;;;5076126;28;20045;-22
2023/04/17 00:54:15;;;;;;;93.38;33.53;;;7.00;99.90;;;;;;5076138;28;20086;-23
2023/04/17 00:56:42;;;;;;;82.72;32.28;;;7.00;99.90;;;;;;5076087;28;20049;-22
2023/04/17 00:59:11;;;;;;;93.75;33.58;;;6.90;99.90;;;;;;5076050;28;20382;-22
2023/04/17 01:01:36;;;;;;;125.88;35.90;;;7.00;99.90;;;;;;5058044;28;20052;-23
2023/04/17 01:04:04;;;;;;;112.78;34.45;;;6.90;99.90;;;;;;5075957;28;20053;-22
2023/04/17 01:06:30;;;;;;;99.85;33.90;;;7.00;99.90;;;;;;5076686;28;20382;-23
2023/04/17 01:08:56;;;;;;;79.88;32.13;;;6.90;99.90;;;;;;5058967;28;20056;-23
2023/04/17 01:11:22;;;;;;;75.43;30.75;;;6.90;99.90;;;;;;5076370;28;20048;-22
2023/04/17 01:13:49;;;;;;;72.60;31.23;;;6.90;99.90;;;;;;5075776;28;20040;-23
2023/04/17 01:16:15;;;;;;;72.07;32.60;;;6.90;99.90;;;;;;5058506;28;20428;-22
2023/04/17 01:18:41;;;;;;;112.70;33.85;;;6.90;99.90;;;;;;5075691;28;20119;-22
2023/04/17 01:21:07;;;;;;;84.63;33.45;;;6.90;99.90;;;;;;5075658;28;20052;-23
2023/04/17 01:23:53;;;;;;;86.28;34.22;;;6.90;99.90;;;;;;5075830;28;20127;-23
2023/04/17 01:26:23;;;;;;;111.85;38.25;;;6.90;99.90;;;;;;5057671;28;20509;-22
2023/04/17 01:28:56;;;;;;;91.35;35.03;;;6.90;99.90;;;;;;5075466;28;20402;-23
2023/04/17 01:31:22;;;;;;;;;;;6.90;99.90;;;;;;5075928;28;20036;-23
2023/04/17 01:33:48;;;;;;;110.80;34.20;;;6.90;99.90;;;;;;5024591;28;19927;-22
2023/04/17 01:36:15;;;;;;;141.60;37.00;;;6.80;99.90;;;;;;5056954;28;20538;-22
2023/04/17 01:38:41;;;;;;;122.80;35.95;;;6.80;99.90;;;;;;5075345;28;20137;-22
2023/04/17 01:41:10;;;;;;;142.88;37.75;;;6.80;99.90;;;;;;5075223;28;20040;-22
2023/04/17 01:43:42;;;;;;;159.98;36.38;;;6.70;99.90;;;;;;5076291;28;20070;-22
2023/04/17 01:46:08;;;;;;;113.10;32.83;;;6.80;99.90;;;;;;5075042;28;20037;-22
2023/04/17 01:48:34;;;;;;;134.02;33.65;;;6.80;99.90;;;;;;5075142;28;20104;-23
2023/04/17 01:51:00;;;;;;;110.88;31.90;;;6.80;99.90;;;;;;5075049;28;20044;-22
2023/04/17 01:53:26;;;;;;;189.00;36.42;;;6.70;99.90;;;;;;5057321;28;20045;-23
2023/04/17 01:55:52;;;;;;;136.98;32.65;;;6.70;99.90;;;;;;5074597;28;20119;-23
2023/04/17 01:58:18;;;;;;;173.40;36.55;;;6.70;99.90;;;;;;5074904;28;20052;-22
2023/04/17 02:00:47;;;;;;;104.80;31.88;;;6.80;99.90;;;;;;5074801;28;20040;-23
2023/04/17 02:03:13;;;;;;;107.50;33.78;;;6.70;99.90;;;;;;5075047;28;20051;-22
2023/04/17 02:05:39;;;;;;;125.93;33.17;;;6.70;99.90;;;;;;5074612;28;20044;-22
2023/04/17 02:08:04;;;;;;;109.03;31.58;;;6.70;99.90;;;;;;5075277;28;20040;-23
2023/04/17 02:10:30;;;;;;;122.78;31.95;;;6.70;99.90;;;;;;5075175;28;20052;-23
2023/04/17 02:12:56;;;;;;;154.73;33.95;;;6.70;99.90;;;;;;5074573;28;20087;-23
2023/04/17 02:15:22;;;;;;;162.27;35.75;;;6.60;99.90;;;;;;5074535;28;20045;-23
2023/04/17 02:17:47;;;;;;;174.10;36.13;;;6.70;99.90;;;;;;5074151;28;20121;-22
2023/04/17 02:20:14;;;;;;;197.80;40.50;;;6.60;99.90;;;;;;5074742;28;20056;-22
2023/04/17 02:22:40;;;;;;;238.05;37.45;;;6.60;99.90;;;;;;5057165;28;20433;-22
2023/04/17 02:25:06;;;;;;;160.07;35.17;;;6.60;99.90;;;;;;5074238;28;20040;-23
2023/04/17 02:27:31;;;;;;;212.20;37.75;;;6.60;99.90;;;;;;5074197;28;20123;-22
2023/04/17 02:29:57;;;;;;;151.40;33.05;;;6.70;99.90;;;;;;5074573;28;20048;-23
2023/04/17 02:32:23;;;;;;;220.68;38.60;;;6.70;99.90;;;;;;5074290;28;20127;-22
2023/04/17 02:34:48;;;;;;;342.02;40.45;;;6.60;99.90;;;;;;5057076;28;20101;-22
2023/04/17 02:37:14;;;;;;;255.05;36.63;;;6.60;99.90;;;;;;5073867;28;20056;-22
2023/04/17 02:39:40;;;;;;;250.15;41.00;;;6.70;99.90;;;;;;5074098;28;20078;-23
2023/04/17 02:42:06;;;;;;;152.93;36.90;;;6.70;99.90;;;;;;5073994;28;20044;-22
2023/04/17 02:44:31;;;;;;;103.53;33.65;;;6.70;99.90;;;;;;5056572;28;20135;-23
2023/04/17 02:46:57;;;;;;;153.80;36.17;;;6.70;99.90;;;;;;5055652;28;20056;-22
2023/04/17 02:49:23;;;;;;;157.40;37.72;;;6.70;99.90;;;;;;5073960;28;20075;-22
2023/04/17 02:51:48;;;;;;;305.42;44.78;;;6.70;99.90;;;;;;5073956;28;20470;-23
2023/04/17 02:54:14;;;;;;;437.35;45.42;;;6.70;99.90;;;;;;5073865;28;20555;-23
2023/04/17 02:56:40;;;;;;;466.45;49.00;;;6.70;99.90;;;;;;5074176;28;20045;-22
2023/04/17 02:59:05;;;;;;;512.20;48.85;;;6.70;99.90;;;;;;5074157;28;20045;-23
2023/04/17 03:01:32;;;;;;;319.52;48.20;;;6.60;99.90;;;;;;5073785;28;20123;-23
2023/04/17 03:03:58;;;;;;;304.58;46.20;;;6.60;99.90;;;;;;5073853;28;20055;-23
2023/04/17 03:06:25;;;;;;;264.90;43.97;;;6.60;99.90;;;;;;5073617;28;20049;-22
2023/04/17 03:08:51;;;;;;;322.55;45.85;;;6.60;99.90;;;;;;5073784;28;20092;-22
2023/04/17 03:11:17;;;;;;;239.73;43.40;;;6.60;99.90;;;;;;5073976;28;20080;-22
2023/04/17 03:13:42;;;;;;;393.10;45.20;;;6.60;99.90;;;;;;5073661;28;20529;-22
2023/04/17 03:16:08;;;;;;;367.15;42.75;;;6.60;99.90;;;;;;5073912;28;20555;-22
2023/04/17 03:18:37;;;;;;;267.80;40.85;;;6.60;99.90;;;;;;5073580;28;20428;-23
2023/04/17 03:21:03;;;;;;;322.40;44.15;;;6.50;99.90;;;;;;5073595;28;20045;-23
2023/04/17 03:23:29;;;;;;;419.05;47.80;;;6.50;99.90;;;;;;5073548;28;20379;-22
2023/04/17 03:25:54;;;;;;;310.83;38.75;;;6.50;99.90;;;;;;5073460;28;20044;-23
2023/04/17 03:28:21;;;;;;;307.98;37.60;;;6.50;99.90;;;;;;5073447;28;20479;-22
2023/04/17 03:30:48;;;;;;;367.33;43.42;;;6.50;99.90;;;;;;5074088;28;20164;-23
2023/04/17 03:33:13;;;;;;;423.17;45.97;;;6.50;99.90;;;;;;5055259;28;20044;-22
2023/04/17 03:35:39;;;;;;;413.25;50.35;;;6.50;99.90;;;;;;5073090;28;20093;-22
2023/04/17 03:38:05;;;;;;;328.80;43.70;;;6.50;99.90;;;;;;5073966;28;20135;-22
2023/04/17 03:40:31;;;;;;;263.83;40.92;;;6.50;99.90;;;;;;5074191;28;20217;-22
2023/04/17 03:42:56;;;;;;;470.05;48.88;;;6.60;99.90;;;;;;5073463;28;20055;-23
2023/04/17 03:45:22;;;;;;;443.25;46.53;;;6.50;99.90;;;;;;5055438;28;20053;-22
2023/04/17 03:47:48;;;;;;;505.05;47.40;;;6.50;99.90;;;;;;5073603;28;20182;-22
2023/04/17 03:50:14;;;;;;;393.23;47.15;;;6.50;99.90;;;;;;5073247;28;20498;-22
2023/04/17 03:52:39;;;;;;;372.55;44.53;;;6.50;99.90;;;;;;5073322;28;20055;-22
2023/04/17 03:55:06;;;;;;;278.88;41.90;;;6.50;99.90;;;;;;5073222;28;20040;-22
2023/04/17 03:57:31;;;;;;;338.10;45.53;;;6.50;99.90;;;;;;5075700;28;20055;-23
2023/04/17 03:59:57;;;;;;;512.15;50.05;;;6.60;99.90;;;;;;5077154;28;20135;-23
2023/04/17 04:02:23;;;;;;;350.70;43.95;;;6.60;99.90;;;;;;5077644;28;20052;-23
2023/04/17 04:04:49;;;;;;;292.98;43.45;;;6.60;99.90;;;;;;5075803;28;20059;-23
2023/04/17 04:07:15;;;;;;;372.67;46.75;;;6.60;99.90;;;;;;5060162;28;20036;-23
2023/04/17 04:09:40;;;;;;;280.83;44.72;;;6.60;99.90;;;;;;5059318;28;20110;-23
2023/04/17 04:12:07;;;;;;;607.55;58.35;;;6.60;99.90;;;;;;5077124;28;20060;-23
2023/04/17 04:14:33;;;;;;;461.88;51.22;;;6.60;99.90;;;;;;5058981;28;20045;-22
2023/04/17 04:16:59;;;;;;;565.95;55.20;;;6.60;99.90;;;;;;5076794;28;20071;-22
2023/04/17 04:19:25;;;;;;;430.13;49.85;;;6.60;99.90;;;;;;5025774;28;20040;-23
2023/04/17 04:21:52;;;;;;;473.52;52.08;;;6.60;99.90;;;;;;5076499;28;20052;-23
2023/04/17 04:24:19;;;;;;;380.42;47.83;;;6.60;99.90;;;;;;5076663;28;20486;-22
2023/04/17 04:26:48;;;;;;;369.25;45.38;;;6.60;99.90;;;;;;5077414;28;20435;-23
2023/04/17 04:29:15;;;;;;;337.90;42.92;;;6.60;99.90;;;;;;5076507;28;20439;-22
2023/04/17 04:31:41;;;;;;;477.17;55.17;;;6.50;99.90;;;;;;5076553;28;20055;-23
2023/04/17 04:34:08;;;;;;;395.67;48.20;;;6.50;99.90;;;;;;5058780;28;20049;-23
2023/04/17 04:36:40;;;;;;;396.15;49.08;;;6.50;99.90;;;;;;5076241;28;20062;-22
2023/04/17 04:39:06;;;;;;;554.42;57.00;;;6.50;99.90;;;;;;5076108;28;20502;-22
2023/04/17 04:41:33;;;;;;;427.15;48.30;;;6.50;99.90;;;;;;5076345;28;20084;-22
2023/04/17 04:44:02;;;;;;;370.30;49.55;;;6.60;99.90;;;;;;5076378;28;20067;-22
2023/04/17 04:46:28;;;;;;;484.30;54.20;;;6.60;99.90;;;;;;5058753;28;20051;-23
2023/04/17 04:48:53;;;;;;;462.20;51.83;;;6.50;99.90;;;;;;5042334;28;20131;-22
2023/04/17 04:51:19;;;;;;;551.42;59.58;;;6.50;99.90;;;;;;5059317;28;20053;-22
2023/04/17 04:53:45;;;;;;;528.95;58.08;;;6.50;99.90;;;;;;5058477;28;20098;-22
2023/04/17 04:56:11;;;;;;;455.05;59.70;;;6.60;99.90;;;;;;5059034;28;20471;-22
2023/04/17 04:58:39;;;;;;;367.73;48.72;;;6.60;99.90;;;;;;5076049;28;20048;-22
2023/04/17 05:01:06;;;;;;;409.20;52.40;;;6.70;99.90;;;;;;5076604;28;20049;-22
2023/04/17 05:03:32;;;;;;;354.55;51.50;;;6.60;99.90;;;;;;5076014;28;20543;-22
2023/04/17 05:05:57;;;;;;;416.33;58.53;;;6.60;99.90;;;;;;5075860;28;20044;-22
2023/04/17 05:08:23;;;;;;;220.98;47.50;;;6.70;99.90;;;;;;5075886;28;20478;-23
2023/04/17 05:10:49;;;;;;;252.07;48.53;;;6.70;99.90;;;;;;5075839;28;20048;-22
2023/04/17 05:13:15;;;;;;;301.73;48.05;;;6.70;99.90;;;;;;5075795;28;20076;-22
2023/04/17 05:15:40;;;;;;;319.63;52.38;;;6.70;99.90;;;;;;5075740;28;20051;-23
2023/04/17 05:18:06;;;;;;;306.80;47.47;;;6.80;99.90;;;;;;5075672;28;20052;-22
2023/04/17 05:20:32;;;;;;;289.50;48.85;;;6.80;99.90;;;;;;5076198;28;20135;-22
2023/04/17 05:22:58;;;;;;;297.65;49.95;;;6.80;99.90;;;;;;5075607;28;20045;-23
2023/04/17 05:25:23;;;;;;;336.95;48.45;;;6.80;99.90;;;;;;5076295;28;20044;-22
2023/04/17 05:27:49;;;;;;;290.52;48.03;;;6.90;99.90;;;;;;5075439;28;20569;-22
2023/04/17 05:30:15;;;;;;;219.93;48.03;;;6.90;99.90;;;;;;5057767;28;20055;-22
2023/04/17 05:32:41;;;;;;;180.05;45.38;;;6.90;99.90;;;;;;5075371;28;20079;-23
2023/04/17 05:35:07;;;;;;;233.00;47.72;;;7.00;99.90;;;;;;5075331;28;20037;-22
2023/04/17 05:37:32;;;;;;;231.95;46.42;;;7.00;99.90;;;;;;5075037;28;20056;-23
2023/04/17 05:40:00;;;;;;;175.52;43.65;;;7.00;99.90;;;;;;5075253;28;20056;-23
2023/04/17 05:42:25;;;;;;;174.68;41.55;;;7.10;99.90;;;;;;5057592;28;20087;-22
2023/04/17 05:44:51;;;;;;;147.77;40.63;;;7.10;99.90;;;;;;5075081;28;20080;-22
2023/04/17 05:47:18;;;;;;;127.55;38.80;;;7.10;99.90;;;;;;5075126;28;20439;-22
2023/04/17 05:49:43;;;;;;;161.98;38.70;;;7.10;99.90;;;;;;5075046;28;20045;-22
2023/04/17 05:52:09;;;;;;;156.85;38.90;;;7.20;99.90;;;;;;5075299;28;20044;-22
2023/04/17 05:54:35;;;;;;;125.78;36.70;;;7.30;99.90;;;;;;5074984;28;20535;-23
2023/04/17 05:57:02;;;;;;;138.27;37.40;;;7.30;99.90;;;;;;5074912;28;20075;-23
2023/04/17 05:59:27;;;;;;;125.78;37.55;;;7.40;99.90;;;;;;5057043;28;20402;-23
2023/04/17 06:01:53;;;;;;;143.93;40.15;;;7.40;99.90;;;;;;5074791;28;20051;-22
2023/04/17 06:04:19;;;;;;;127.30;39.50;;;7.50;99.90;;;;;;5075281;28;20056;-22
2023/04/17 06:06:45;;;;;;;103.65;34.22;;;7.50;99.90;;;;;;5056840;28;20049;-23
2023/04/17 06:09:10;;;;;;;102.07;35.78;;;7.60;99.90;;;;;;5074380;28;20482;-23
2023/04/17 06:11:36;;;;;;;109.63;36.78;;;7.60;99.90;;;;;;5074644;28;20056;-24
2023/04/17 06:14:02;;;;;;;102.90;35.63;;;7.60;99.90;;;;;;5074600;28;20451;-23
2023/04/17 06:16:28;;;;;;;110.97;37.05;;;7.70;99.90;;;;;;5057769;28;20135;-22
2023/04/17 06:18:53;;;;;;;92.55;33.25;;;7.80;99.90;;;;;;5056880;28;20421;-23
2023/04/17 06:21:20;;;;;;;81.80;33.05;;;7.90;99.90;;;;;;5074757;28;20055;-22
2023/04/17 06:23:45;;;;;;;70.03;32.83;;;8.00;99.90;;;;;;5074409;28;20502;-23
2023/04/17 06:26:11;;;;;;;75.38;33.95;;;8.20;99.90;;;;;;5074300;28;20049;-23
2023/04/17 06:28:37;;;;;;;69.00;33.28;;;8.30;99.90;;;;;;5074254;28;20091;-23
2023/04/17 06:31:03;;;;;;;63.47;30.88;;;8.30;99.90;;;;;;5056459;28;20568;-23
2023/04/17 06:33:28;;;;;;;68.97;33.38;;;8.40;99.90;;;;;;5074491;28;20043;-23
2023/04/17 06:35:54;;;;;;;56.20;30.23;;;8.40;99.90;;;;;;5074759;28;20044;-23
2023/04/17 06:38:20;;;;;;;55.13;30.92;;;8.50;99.90;;;;;;5056018;28;20060;-23
2023/04/17 06:40:46;;;;;;;45.70;26.63;;;8.60;99.90;;;;;;5056480;28;20117;-23
2023/04/17 06:43:14;;;;;;;50.80;27.52;;;8.60;99.90;;;;;;5074120;28;20048;-23
2023/04/17 06:45:41;;;;;;;44.50;27.95;;;8.70;99.90;;;;;;5074039;28;20094;-23
2023/04/17 06:48:07;;;;;;;46.55;27.17;;;8.70;99.90;;;;;;5074570;28;20086;-22
2023/04/17 06:50:33;;;;;;;46.47;29.63;;;8.80;99.90;;;;;;5055932;28;20402;-22
2023/04/17 06:52:59;;;;;;;45.90;28.15;;;8.80;99.90;;;;;;5056148;28;20044;-23
2023/04/17 06:55:25;;;;;;;48.65;31.33;;;8.80;99.90;;;;;;5056034;28;20084;-23
2023/04/17 06:57:51;;;;;;;44.88;29.17;;;8.90;99.90;;;;;;5056090;28;20044;-23
2023/04/17 07:00:17;;;;;;;41.97;28.80;;;9.00;99.90;;;;;;5073805;28;20052;-23
2023/04/17 07:02:43;;;;;;;43.65;30.92;;;9.00;99.90;;;;;;5074362;28;20080;-23
2023/04/17 07:05:09;;;;;;;40.75;29.08;;;9.10;99.90;;;;;;5073687;28;20103;-23
2023/04/17 07:07:35;;;;;;;39.53;28.55;;;9.20;99.90;;;;;;5055975;28;20041;-23
2023/04/17 07:10:02;;;;;;;34.55;25.13;;;9.20;99.90;;;;;;5055933;28;20131;-23
2023/04/17 07:12:28;;;;;;;34.38;26.63;;;9.20;99.90;;;;;;5040470;28;20106;-23
2023/04/17 07:14:53;;;;;;;35.65;25.67;;;9.30;99.90;;;;;;5073874;28;20052;-23
2023/04/17 07:17:19;;;;;;;33.13;25.80;;;9.30;99.90;;;;;;5073712;28;20048;-23
2023/04/17 07:19:45;;;;;;;31.77;24.50;;;9.40;99.90;;;;;;5074467;28;20080;-23
2023/04/17 07:22:11;;;;;;;31.30;24.15;;;9.50;99.90;;;;;;5073607;28;20528;-23
2023/04/17 07:24:37;;;;;;;33.97;24.73;;;9.40;99.90;;;;;;5073234;28;20466;-23
2023/04/17 07:27:03;;;;;;;30.15;23.00;;;9.40;99.90;;;;;;5073471;28;20123;-23
2023/04/17 07:29:29;;;;;;;28.58;22.48;;;9.50;99.90;;;;;;5073548;28;20053;-23
2023/04/17 07:31:55;;;;;;;29.70;23.10;;;9.60;99.90;;;;;;5077336;28;20048;-23
2023/04/17 07:34:23;;;;;;;28.58;23.55;;;9.60;99.90;;;;;;5080687;28;20056;-23
2023/04/17 07:36:53;;;;;;;31.02;23.08;;;9.60;99.90;;;;;;5058623;28;20534;-23
2023/04/17 07:39:19;;;;;;;27.88;21.85;;;9.70;99.90;;;;;;5060763;28;20095;-23
2023/04/17 07:41:45;;;;;;;31.33;22.05;;;10.00;99.90;;;;;;5059555;28;20414;-23
2023/04/17 07:44:11;;;;;;;26.08;20.48;;;10.20;99.90;;;;;;5061070;28;20048;-23
2023/04/17 07:46:37;;;;;;;22.33;19.02;;;10.60;99.90;;;;;;5059609;28;20079;-23
2023/04/17 07:49:03;;;;;;;22.33;17.83;;;10.80;99.90;;;;;;5059060;28;20041;-23
2023/04/17 07:51:30;;;;;;;21.38;18.25;;;11.00;99.90;;;;;;5059980;28;20442;-23
2023/04/17 07:53:56;;;;;;;18.73;16.73;;;10.90;99.90;;;;;;5058793;28;20059;-23
2023/04/17 07:56:21;;;;;;;22.27;18.17;;;10.90;99.90;;;;;;5060739;28;20040;-23
2023/04/17 07:58:50;;;;;;;21.73;17.58;;;10.70;99.90;;;;;;5060141;28;20506;-23
2023/04/17 08:01:16;;;;;;;21.13;16.77;;;10.80;99.90;;;;;;5059418;28;20103;-23
2023/04/17 08:03:43;;;;;;;21.92;17.13;;;10.80;99.90;;;;;;5059912;28;20045;-23
2023/04/17 08:06:09;;;;;;;22.15;18.90;;;10.80;99.90;;;;;;5059842;28;20044;-23
2023/04/17 08:08:36;;;;;;;24.25;18.58;;;10.80;99.90;;;;;;5059836;28;20098;-23
2023/04/17 08:11:02;;;;;;;20.52;18.02;;;11.00;99.90;;;;;;5059798;28;20052;-23
2023/04/17 08:13:31;;;;;;;23.40;19.70;;;11.20;99.90;;;;;;5058605;28;20049;-23
2023/04/17 08:15:58;;;;;;;20.60;17.90;;;11.30;99.90;;;;;;5059757;28;20049;-23
2023/04/17 08:18:24;;;;;;;21.38;18.35;;;11.60;99.90;;;;;;5059798;28;20049;-23
2023/04/17 08:20:50;;;;;;;20.20;17.88;;;11.80;99.90;;;;;;5060259;28;20080;-23
2023/04/17 08:23:16;;;;;;;22.38;19.17;;;12.00;99.90;;;;;;5059758;28;20085;-23
2023/04/17 08:25:41;;;;;;;20.80;17.52;;;12.00;99.90;;;;;;5058384;28;20431;-23
2023/04/17 08:28:07;;;;;;;20.92;17.30;;;12.30;99.90;;;;;;5059596;28;20037;-23
2023/04/17 08:30:33;;;;;;;21.20;18.70;;;12.40;1.00;;;;;;5059615;28;20103;-23
2023/04/17 08:32:58;;;;;;;19.13;16.83;;;12.60;99.90;;;;;;5059894;28;20045;-24
2023/04/17 08:35:25;;;;;;;19.63;16.50;;;13.00;60.50;;;;;;5059619;28;20063;-24
2023/04/17 08:37:51;;;;;;;17.45;15.57;;;13.20;99.90;;;;;;5058235;28;20064;-24
2023/04/17 08:40:18;;;;;;;19.20;15.50;;;13.60;1.00;;;;;;5058387;28;20048;-24
2023/04/17 08:42:46;;;;;;;17.23;14.50;;;13.90;99.90;;;;;;5057035;28;20049;-24
2023/04/17 08:45:13;;;;;;;17.55;14.65;;;14.40;99.90;;;;;;5055915;28;20124;-24
2023/04/17 08:47:40;;;;;;;15.23;13.63;;;14.70;99.90;;;;;;5056327;28;20045;-24
2023/04/17 08:50:14;;;;;;;16.80;15.00;;;15.00;1.00;;;;;;5056370;28;20084;-24
2023/04/17 08:52:41;;;;;;;16.23;13.85;;;15.10;99.90;;;;;;5056791;28;20372;-24
2023/04/17 08:55:08;;;;;;;16.35;14.60;;;15.10;99.90;;;;;;5055242;28;20060;-24
2023/04/17 08:57:35;;;;;;;15.77;13.02;;;15.10;99.90;;;;;;5056507;28;20056;-24
2023/04/17 09:00:09;;;;;;;18.23;14.75;;;15.20;99.90;;;;;;5056142;28;20081;-24
2023/04/17 09:02:51;;;;;;;17.95;15.23;;;14.90;99.90;;;;;;5056662;28;20463;-24
2023/04/17 09:05:22;;;;;;;17.33;14.88;;;14.90;1.00;;;;;;5056760;28;20048;-24
2023/04/17 09:08:06;;;;;;;16.30;14.13;;;14.90;99.90;;;;;;5055009;28;20438;-24
2023/04/17 09:10:41;;;;;;;16.42;12.80;;;14.90;99.90;;;;;;5055289;28;20053;-24
2023/04/17 09:13:07;;;;;;;14.35;12.85;;;;;;;;;;5054649;28;20178;-24
2023/04/17 09:15:34;;;;;;;16.98;14.82;;;15.60;46.00;;;;;;5056612;28;20072;-23
2023/04/17 09:18:01;;;;;;;16.10;13.30;;;16.10;33.80;;;;;;5055808;28;20090;-23
2023/04/17 09:20:26;;;;;;;16.13;13.10;;;16.30;1.00;;;;;;5055720;28;20060;-23
2023/04/17 09:23:03;;;;;;;15.35;13.18;;;15.60;99.90;;;;;;5055695;28;20053;-23
2023/04/17 09:25:29;;;;;;;14.90;13.35;;;14.60;99.90;;;;;;5055544;28;20067;-23
2023/04/17 09:28:10;;;;;;;14.80;13.18;;;14.30;1.80;;;;;;5056048;28;20127;-23
2023/04/17 09:30:38;;;;;;;14.45;12.57;;;14.20;99.90;;;;;;5054418;28;20049;-23
2023/04/17 09:33:05;;;;;;;18.35;14.45;;;13.40;71.70;;;;;;5054512;28;20162;-23
2023/04/17 09:35:31;;;;;;;16.98;13.75;;;13.50;99.90;;;;;;5055483;28;20041;-23
2023/04/17 09:37:58;;;;;;;19.35;14.95;;;13.70;99.90;;;;;;5070519;28;20060;-23
2023/04/17 09:40:26;;;;;;;17.20;15.10;;;13.60;99.90;;;;;;5075330;28;20123;-24
2023/04/17 09:43:00;;;;;;;17.77;14.48;;;13.70;99.90;;;;;;5041622;28;20091;-23
2023/04/17 09:45:38;;;;;;;18.00;14.25;;;13.70;99.90;;;;;;5075463;28;20055;-23
2023/04/17 09:48:10;;;;;;;20.88;14.93;;;14.00;99.90;;;;;;5057570;28;20101;-23
2023/04/17 09:50:36;;;;;;;16.80;13.48;;;13.80;99.90;;;;;;5075190;28;20540;-23
2023/04/17 09:53:03;;;;;;;17.85;14.93;;;14.00;99.90;;;;;;5075868;28;20098;-23
2023/04/17 09:55:33;;;;;;;18.80;14.57;;;14.10;99.90;;;;;;5057082;28;20056;-23
2023/04/17 09:58:04;;;;;;;17.92;14.48;;;14.30;99.90;;;;;;5074959;28;20131;-23
2023/04/17 10:00:30;;;;;;;15.30;13.20;;;14.30;99.90;;;;;;5075794;28;20102;-24
2023/04/17 10:02:59;;;;;;;18.30;13.55;;;14.30;99.90;;;;;;5075675;28;20044;-23
2023/04/17 10:05:30;;;;;;;17.00;13.18;;;14.40;99.90;;;;;;5074796;28;20090;-23
2023/04/17 10:07:56;;;;;;;18.73;13.85;;;14.60;99.90;;;;;;5075453;28;20040;-23
2023/04/17 10:10:31;;;;;;;16.67;12.75;;;14.60;9.40;;;;;;5040261;28;20532;-23
2023/04/17 10:12:59;;;;;;;15.23;12.40;;;14.90;32.70;;;;;;5057948;28;20094;-23
2023/04/17 10:15:25;;;;;;;16.48;12.13;;;15.20;1.00;;;;;;5074642;28;20052;-23
2023/04/17 10:17:55;;;;;;;14.10;11.75;;;15.60;1.00;;;;;;5074559;28;20044;-23
2023/04/17 10:20:23;;;;;;;16.08;12.43;;;16.20;99.90;;;;;;5074213;28;20452;-24
2023/04/17 10:22:53;;;;;;;15.35;11.57;;;16.80;1.00;;;;;;5075341;28;20435;-24
2023/04/17 10:25:21;;;;;;;15.30;11.48;;;17.00;1.00;;;;;;5074378;28;20040;-24
2023/04/17 10:27:57;;;;;;;15.10;12.32;;;17.20;99.90;;;;;;5057592;28;20040;-24
2023/04/17 10:30:25;;;;;;;16.23;12.73;;;16.60;1.00;;;;;;5074998;28;20382;-23
2023/04/17 10:33:12;;;;;;;17.15;13.43;;;16.10;99.90;;;;;;5074325;28;20044;-24
2023/04/17 10:35:38;;;;;;;17.98;13.43;;;15.60;99.90;;;;;;5074489;28;20420;-24
2023/04/17 10:38:06;;;;;;;15.35;12.50;;;15.10;99.90;;;;;;5056422;28;20490;-24
2023/04/17 10:40:36;;;;;;;16.08;12.07;;;15.20;99.90;;;;;;5074776;28;20048;-23
2023/04/17 10:43:22;;;;;;;17.00;12.50;;;15.40;99.90;;;;;;5074117;28;20055;-23
2023/04/17 10:46:04;;;;;;;14.75;12.40;;;16.20;1.00;;;;;;5074077;28;20056;-24
2023/04/17 10:48:37;;;;;;;15.27;12.35;;;16.80;99.90;;;;;;5073773;28;20563;-24
2023/04/17 10:51:27;;;;;;;17.27;12.65;;;16.80;99.90;;;;;;5074608;28;20044;-24
2023/04/17 10:54:01;;;;;;;17.67;14.18;;;16.80;99.90;;;;;;5074284;28;20398;-24
2023/04/17 10:56:39;;;;;;;17.30;13.45;;;16.50;99.90;;;;;;5073966;28;20045;-23
2023/04/17 10:59:08;;;;;;;15.55;13.38;;;16.00;99.90;;;;;;5073956;28;20044;-23
2023/04/17 11:01:39;;;;;;;15.77;12.77;;;15.70;1.00;;;;;;5056426;28;20403;-23
2023/04/17 11:04:05;;;;;;;17.90;14.07;;;15.40;1.00;;;;;;5056768;28;20442;-23
2023/04/17 11:06:35;;;;;;;19.73;13.68;;;15.40;99.90;;;;;;5073912;28;20069;-24
2023/04/17 11:09:04;;;;;;;17.73;14.05;;;15.50;99.90;;;;;;5073754;28;20049;-24
2023/04/17 11:11:40;;;;;;;19.88;14.43;;;15.60;1.00;;;;;;5073750;28;20048;-24
2023/04/17 11:14:10;;;;;;;18.45;14.02;;;15.90;1.00;;;;;;5073775;28;20045;-24
2023/04/17 11:16:40;;;;;;;21.30;14.75;;;16.40;99.90;;;;;;5073700;28;20040;-23
2023/04/17 11:19:11;;;;;;;18.13;14.40;;;16.30;99.90;;;;;;5073637;28;20048;-23
2023/04/17 11:21:44;;;;;;;19.92;14.65;;;16.50;99.90;;;;;;5073826;28;20161;-24
2023/04/17 11:24:10;;;;;;;16.48;11.93;;;16.50;1.00;;;;;;5073586;28;20051;-24
2023/04/17 11:26:46;;;;;;;19.05;14.02;;;16.60;10.10;;;;;;5055963;28;20036;-23
2023/04/17 11:29:13;;;;;;;22.45;15.68;;;16.70;99.90;;;;;;5073522;28;20084;-24
2023/04/17 11:31:39;;;;;;;18.33;14.68;;;16.70;1.00;;;;;;5073592;28;20056;-23
2023/04/17 11:34:07;;;;;;;15.88;13.98;;;17.10;1.00;;;;;;5056165;28;20046;-24
2023/04/17 11:36:32;;;;;;;18.17;14.65;;;17.70;1.00;;;;;;5039106;28;20468;-23
2023/04/17 11:38:58;;;;;;;16.88;14.40;;;18.00;99.90;;;;;;5056109;28;20088;-24
2023/04/17 11:41:35;;;;;;;16.52;14.75;;;18.20;99.90;;;;;;5055568;28;20376;-24
2023/04/17 11:44:01;;;;;;;17.85;14.65;;;18.30;99.90;;;;;;5074277;28;20052;-24
2023/04/17 11:46:28;;;;;;;16.85;13.82;;;18.80;99.90;;;;;;5055224;28;20055;-24
2023/04/17 11:48:53;;;;;;;16.95;14.60;;;18.80;99.90;;;;;;5073379;28;20052;-24
2023/04/17 11:51:19;;;;;;;17.23;13.90;;;18.60;1.00;;;;;;5073667;28;20178;-24
2023/04/17 11:53:49;;;;;;;19.85;13.77;;;18.50;99.90;;;;;;5055688;28;20049;-24
2023/04/17 11:56:17;;;;;;;16.45;14.30;;;18.10;99.90;;;;;;5073310;28;20047;-24
2023/04/17 11:58:54;;;;;;;16.98;13.35;;;18.40;99.90;;;;;;5073247;28;20091;-24
2023/04/17 12:01:23;;;;;;;20.25;15.20;;;18.40;99.90;;;;;;5055631;28;20458;-24
2023/04/17 12:03:50;;;;;;;16.13;14.43;;;18.00;99.90;;;;;;5073217;28;20086;-24
2023/04/17 12:06:16;;;;;;;18.20;14.95;;;17.90;99.90;;;;;;5073149;28;20083;-24
2023/04/17 12:08:52;;;;;;;15.30;13.32;;;18.20;99.90;;;;;;5074005;28;20072;-24
2023/04/17 12:11:34;;;;;;;16.92;14.63;;;18.40;1.00;;;;;;5073210;28;20123;-24
2023/04/17 12:14:02;;;;;;;16.92;14.48;;;18.30;1.00;;;;;;5074006;28;20044;-24
2023/04/17 12:16:28;;;;;;;18.15;13.85;;;18.50;1.00;;;;;;5071562;28;20045;-24
2023/04/17 12:18:54;;;;;;;18.40;15.57;;;18.90;1.00;;;;;;5073550;28;20056;-24
2023/04/17 12:21:22;;;;;;;20.85;15.68;;;18.80;1.00;;;;;;5089871;28;20051;-24
2023/04/17 12:23:48;;;;;;;17.63;14.77;;;18.70;99.90;;;;;;5097139;28;20051;-24
2023/04/17 12:26:15;;;;;;;15.48;13.80;;;19.00;99.90;;;;;;5076719;28;20044;-24
2023/04/17 12:28:41;;;;;;;16.48;14.27;;;19.30;99.90;;;;;;5076627;28;20052;-24
2023/04/17 12:31:07;;;;;;;17.25;15.43;;;19.20;99.90;;;;;;5076684;28;20048;-24